createdAt,value
2018-06-10T00:00:22.569Z,80.90
2018-06-10T00:02:51.077Z,81.40
2018-06-10T00:05:19.279Z,81.60
2018-06-10T00:07:47.519Z,82.00
2018-06-10T00:10:15.862Z,82.10
2018-06-10T00:12:44.177Z,82.50
2018-06-10T00:15:12.455Z,83.10
2018-06-10T00:17:40.710Z,83.70
2018-06-10T00:20:09.054Z,84.50
2018-06-10T00:22:37.365Z,84.80
2018-06-10T00:25:06.427Z,85.20
2018-06-10T00:27:34.666Z,85.40
2018-06-10T00:30:02.975Z,85.70
2018-06-10T00:32:31.866Z,85.70
2018-06-10T00:35:00.256Z,85.40
2018-06-10T00:37:28.482Z,86.10
2018-06-10T00:39:56.786Z,86.20
2018-06-10T00:42:25.007Z,86.50
2018-06-10T00:44:53.516Z,86.40
2018-06-10T00:47:22.082Z,86.50
2018-06-10T00:49:50.416Z,86.40
2018-06-10T00:52:18.695Z,86.20
2018-06-10T00:54:47.036Z,86.30
2018-06-10T00:57:15.298Z,86.20
2018-06-10T00:59:43.552Z,85.70
2018-06-10T01:02:11.837Z,85.50
2018-06-10T01:04:40.085Z,84.90
2018-06-10T01:07:08.351Z,85.00
2018-06-10T01:09:36.566Z,85.20
2018-06-10T01:12:04.901Z,84.70
2018-06-10T01:14:33.499Z,84.30
2018-06-10T01:17:01.714Z,84.10
2018-06-10T01:19:29.974Z,84.60
2018-06-10T01:21:58.309Z,84.10
2018-06-10T01:24:26.731Z,83.80
2018-06-10T01:26:54.972Z,83.60
2018-06-10T01:29:23.241Z,83.30
2018-06-10T01:31:51.488Z,83.00
2018-06-10T01:34:19.733Z,82.80
2018-06-10T01:36:47.960Z,82.50
2018-06-10T01:39:16.193Z,82.60
2018-06-10T01:41:44.430Z,82.20
2018-06-10T01:44:12.630Z,82.60
2018-06-10T01:46:40.878Z,81.90
2018-06-10T01:49:09.168Z,81.80
2018-06-10T01:51:37.414Z,81.80
2018-06-10T01:54:05.617Z,82.00
2018-06-10T01:56:33.901Z,81.80
2018-06-10T01:59:02.112Z,82.10
2018-06-10T02:01:30.338Z,82.00
2018-06-10T02:03:58.625Z,82.70
2018-06-10T02:06:26.898Z,81.70
2018-06-10T02:08:55.150Z,81.50
2018-06-10T02:11:23.392Z,80.60
2018-06-10T02:13:51.626Z,80.70
2018-06-10T02:16:19.970Z,80.80
2018-06-10T02:18:48.198Z,81.10
2018-06-10T02:21:16.438Z,81.10
2018-06-10T02:23:44.683Z,81.30
2018-06-10T02:26:12.925Z,81.70
2018-06-10T02:28:41.127Z,82.00
2018-06-10T02:31:09.394Z,82.50
2018-06-10T02:33:37.636Z,82.90
2018-06-10T02:36:05.909Z,83.00
2018-06-10T02:38:34.171Z,83.00
2018-06-10T02:41:02.450Z,83.00
2018-06-10T02:43:30.700Z,83.30
2018-06-10T02:45:58.947Z,83.40
2018-06-10T02:48:27.174Z,83.40
2018-06-10T02:50:55.468Z,83.50
2018-06-10T02:53:23.732Z,83.70
2018-06-10T02:55:51.998Z,83.80
2018-06-10T02:58:20.267Z,84.00
2018-06-10T03:00:48.505Z,83.90
2018-06-10T03:03:16.783Z,84.00
2018-06-10T03:05:45.045Z,83.40
2018-06-10T03:08:13.321Z,83.30
2018-06-10T03:10:41.986Z,83.70
2018-06-10T03:13:10.223Z,83.80
2018-06-10T03:15:38.454Z,84.20
2018-06-10T03:18:06.681Z,84.40
2018-06-10T03:20:34.921Z,84.30
2018-06-10T03:23:03.220Z,84.20
2018-06-10T03:25:31.446Z,84.30
2018-06-10T03:27:59.694Z,84.20
2018-06-10T03:30:27.912Z,84.20
2018-06-10T03:32:56.178Z,84.10
2018-06-10T03:35:24.449Z,84.20
2018-06-10T03:37:52.728Z,84.10
2018-06-10T03:40:20.946Z,84.10
2018-06-10T03:42:49.193Z,84.00
2018-06-10T03:45:17.500Z,84.40
2018-06-10T03:47:45.699Z,84.00
2018-06-10T03:50:13.948Z,84.60
2018-06-10T03:52:42.196Z,84.80
2018-06-10T03:55:10.440Z,84.70
2018-06-10T03:57:38.683Z,84.70
2018-06-10T04:00:06.941Z,84.70
2018-06-10T04:02:35.185Z,84.50
2018-06-10T04:05:03.550Z,84.20
2018-06-10T04:07:31.888Z,84.00
2018-06-10T04:10:00.126Z,83.80
2018-06-10T04:12:28.353Z,83.70
2018-06-10T04:14:56.660Z,83.50
2018-06-10T04:17:24.991Z,83.30
2018-06-10T04:19:53.222Z,83.20
2018-06-10T04:22:21.485Z,83.00
2018-06-10T04:24:49.706Z,82.50
2018-06-10T04:29:45.942Z,81.50
2018-06-10T04:32:14.211Z,82.70
2018-06-10T04:34:42.454Z,82.40
2018-06-10T04:37:10.685Z,82.30
2018-06-10T04:39:38.910Z,82.20
2018-06-10T04:42:07.245Z,82.10
2018-06-10T04:44:35.438Z,82.00
2018-06-10T04:47:03.675Z,81.90
2018-06-10T04:49:31.944Z,82.00
2018-06-10T04:52:00.129Z,82.20
2018-06-10T04:54:28.369Z,82.10
2018-06-10T04:56:56.581Z,82.00
2018-06-10T04:59:24.901Z,81.90
2018-06-10T05:01:53.533Z,81.70
2018-06-10T05:06:49.776Z,81.50
2018-06-10T05:09:18.005Z,82.50
2018-06-10T05:11:46.209Z,81.70
2018-06-10T05:14:14.436Z,82.00
2018-06-10T05:16:42.725Z,81.70
2018-06-10T05:19:11.035Z,81.60
2018-06-10T05:21:39.279Z,81.60
2018-06-10T05:24:07.480Z,81.30
2018-06-10T05:26:35.759Z,80.60
2018-06-10T05:29:04.307Z,80.10
2018-06-10T05:31:32.618Z,79.80
2018-06-10T05:34:00.868Z,79.60
2018-06-10T05:36:29.149Z,79.20
2018-06-10T05:38:57.395Z,78.80
2018-06-10T05:41:25.616Z,78.70
2018-06-10T05:43:53.878Z,78.30
2018-06-10T05:46:22.150Z,78.00
2018-06-10T05:48:50.353Z,77.80
2018-06-10T05:51:18.621Z,77.40
2018-06-10T05:53:46.852Z,77.10
2018-06-10T05:56:15.145Z,77.10
2018-06-10T05:58:43.354Z,76.90
2018-06-10T06:01:11.610Z,76.70
2018-06-10T06:03:39.834Z,77.10
2018-06-10T06:06:08.086Z,76.00
2018-06-10T06:08:36.341Z,75.90
2018-06-10T06:11:04.783Z,75.60
2018-06-10T06:13:32.980Z,75.20
2018-06-10T06:16:01.198Z,75.10
2018-06-10T06:18:29.530Z,74.80
2018-06-10T06:20:57.765Z,75.20
2018-06-10T06:23:26.023Z,74.50
2018-06-10T06:25:54.323Z,74.20
2018-06-10T06:28:22.610Z,74.00
2018-06-10T06:30:50.922Z,73.90
2018-06-10T06:33:19.265Z,73.60
2018-06-10T06:35:47.595Z,73.40
2018-06-10T06:38:15.914Z,73.40
2018-06-10T06:40:44.788Z,73.00
2018-06-10T06:43:13.050Z,72.30
2018-06-10T06:45:41.353Z,71.90
2018-06-10T06:48:09.553Z,71.60
2018-06-10T06:50:37.853Z,71.40
2018-06-10T06:53:06.111Z,71.10
2018-06-10T06:55:34.355Z,70.90
2018-06-10T06:58:02.655Z,70.70
2018-06-10T07:00:30.864Z,70.40
2018-06-10T07:02:59.181Z,70.20
2018-06-10T07:05:27.390Z,70.50
2018-06-10T07:07:55.633Z,70.70
2018-06-10T07:10:23.922Z,70.70
2018-06-10T07:12:52.144Z,70.90
2018-06-10T07:15:20.441Z,71.00
2018-06-10T07:17:48.743Z,71.20
2018-06-10T07:20:17.322Z,71.30
2018-06-10T07:22:45.549Z,71.30
2018-06-10T07:25:13.801Z,71.50
2018-06-10T07:27:42.046Z,71.50
2018-06-10T07:30:10.443Z,71.40
2018-06-10T07:32:38.885Z,71.10
2018-06-10T07:35:07.169Z,70.70
2018-06-10T07:37:35.458Z,70.40
2018-06-10T07:40:03.800Z,70.10
2018-06-10T07:42:32.071Z,69.70
2018-06-10T07:45:00.338Z,69.90
2018-06-10T07:47:28.595Z,70.00
2018-06-10T07:49:57.275Z,69.90
2018-06-10T07:52:25.575Z,69.70
2018-06-10T07:54:53.813Z,69.80
2018-06-10T07:57:22.107Z,69.80
2018-06-10T07:59:50.421Z,69.60
2018-06-10T08:02:18.630Z,69.80
2018-06-10T08:04:46.938Z,70.00
2018-06-10T08:07:15.165Z,70.00
2018-06-10T08:09:43.451Z,70.40
2018-06-10T08:14:39.754Z,70.60
2018-06-10T08:17:08.033Z,70.60
2018-06-10T08:19:36.246Z,71.00
2018-06-10T08:22:04.707Z,71.60
2018-06-10T08:24:32.980Z,72.00
2018-06-10T08:27:01.154Z,72.60
2018-06-10T08:29:29.389Z,73.20
2018-06-10T08:31:57.660Z,73.30
2018-06-10T08:34:25.870Z,73.50
2018-06-10T08:36:54.154Z,74.00
2018-06-10T08:39:22.453Z,74.20
2018-06-10T08:41:50.693Z,74.30
2018-06-10T08:44:18.933Z,74.20
2018-06-10T08:46:47.377Z,74.50
2018-06-10T08:49:15.604Z,74.50
2018-06-10T08:51:43.837Z,74.30
2018-06-10T08:54:12.043Z,73.80
2018-06-10T08:56:40.248Z,73.60
2018-06-10T08:59:08.783Z,73.00
2018-06-10T09:01:37.079Z,73.00
2018-06-10T09:04:05.342Z,72.70
2018-06-10T09:06:33.688Z,72.40
2018-06-10T09:09:02.340Z,71.90
2018-06-10T09:11:30.744Z,71.10
2018-06-10T09:13:59.038Z,69.50
2018-06-10T09:16:27.309Z,68.20
2018-06-10T09:18:55.564Z,66.80
2018-06-10T09:21:24.162Z,66.70
2018-06-10T09:23:52.507Z,65.10
2018-06-10T09:26:20.841Z,65.50
2018-06-10T09:28:50.195Z,66.00
2018-06-10T09:31:18.474Z,64.50
2018-06-10T09:33:46.813Z,63.90
2018-06-10T09:36:15.462Z,64.90
2018-06-10T09:38:43.756Z,64.70
2018-06-10T09:41:12.727Z,64.60
2018-06-10T09:43:41.044Z,64.90
2018-06-10T09:46:09.422Z,65.70
2018-06-10T09:48:37.652Z,66.50
2018-06-10T09:51:05.957Z,66.70
2018-06-10T09:53:34.243Z,67.60
2018-06-10T09:56:02.557Z,68.20
2018-06-10T09:58:30.948Z,68.80
2018-06-10T10:00:59.222Z,69.20
2018-06-10T10:03:27.551Z,68.80
2018-06-10T10:05:55.986Z,69.00
2018-06-10T10:08:24.204Z,69.00
2018-06-10T10:10:52.615Z,69.00
2018-06-10T10:13:20.864Z,69.00
2018-06-10T10:15:49.246Z,68.40
2018-06-10T10:18:17.553Z,67.80
2018-06-10T10:20:45.852Z,65.80
2018-06-10T10:23:14.137Z,65.70
2018-06-10T10:25:42.453Z,65.10
2018-06-10T10:28:10.794Z,64.30
2018-06-10T10:30:39.123Z,64.00
2018-06-10T10:33:07.362Z,63.60
2018-06-10T10:35:35.659Z,62.20
2018-06-10T10:38:03.933Z,61.30
2018-06-10T10:40:32.423Z,61.00
2018-06-10T10:43:00.721Z,60.80
2018-06-10T10:45:29.381Z,60.30
2018-06-10T10:48:00.386Z,60.30
2018-06-10T10:50:30.224Z,60.00
2018-06-10T10:53:02.102Z,59.70
2018-06-10T10:55:48.878Z,59.70
2018-06-10T10:58:18.142Z,59.50
2018-06-10T11:00:46.832Z,59.80
2018-06-10T11:03:19.925Z,59.50
2018-06-10T11:05:48.981Z,59.40
2018-06-10T11:08:17.370Z,59.20
2018-06-10T11:10:46.270Z,58.50
2018-06-10T11:13:14.483Z,58.40
2018-06-10T11:15:42.912Z,57.90
2018-06-10T11:18:11.304Z,57.40
2018-06-10T11:20:39.526Z,58.20
2018-06-10T11:23:07.745Z,58.20
2018-06-10T11:25:36.850Z,58.20
2018-06-10T11:28:05.065Z,57.90
2018-06-10T11:30:33.359Z,57.30
2018-06-10T11:33:02.195Z,57.30
2018-06-10T11:35:30.955Z,57.60
2018-06-10T11:37:59.921Z,57.90
2018-06-10T11:40:28.392Z,57.90
2018-06-10T11:42:56.756Z,57.50
2018-06-10T11:45:25.063Z,57.70
2018-06-10T11:47:53.353Z,58.10
2018-06-10T11:50:21.603Z,59.20
2018-06-10T11:52:49.853Z,59.60
2018-06-10T11:55:18.911Z,59.40
2018-06-10T11:57:47.189Z,59.40
2018-06-10T12:00:15.829Z,58.80
2018-06-10T12:02:44.143Z,57.70
2018-06-10T12:05:12.706Z,56.80
2018-06-10T12:07:40.971Z,56.90
2018-06-10T12:10:09.203Z,56.50
2018-06-10T12:12:37.499Z,55.90
2018-06-10T12:15:05.938Z,56.00
2018-06-10T12:17:34.250Z,56.30
2018-06-10T12:20:02.505Z,56.50
2018-06-10T12:22:30.968Z,57.40
2018-06-10T12:24:59.658Z,57.10
2018-06-10T12:27:27.926Z,57.40
2018-06-10T12:29:56.656Z,56.80
2018-06-10T12:32:25.071Z,56.50
2018-06-10T12:34:53.553Z,56.10
2018-06-10T12:37:21.886Z,55.90
2018-06-10T12:39:51.035Z,55.30
2018-06-10T12:42:19.400Z,55.70
2018-06-10T12:44:48.603Z,55.20
2018-06-10T12:47:17.319Z,55.00
2018-06-10T12:49:45.611Z,55.30
2018-06-10T12:52:17.493Z,55.00
2018-06-10T12:54:45.928Z,55.30
2018-06-10T12:57:14.301Z,55.30
2018-06-10T12:59:42.610Z,55.70
2018-06-10T13:02:10.891Z,55.60
2018-06-10T13:04:39.081Z,55.50
2018-06-10T13:07:07.834Z,55.40
2018-06-10T13:09:36.045Z,55.60
2018-06-10T13:12:04.319Z,55.30
2018-06-10T13:14:32.749Z,55.00
2018-06-10T13:17:01.258Z,55.30
2018-06-10T13:19:29.447Z,56.20
2018-06-10T13:21:57.889Z,54.90
2018-06-10T13:24:26.178Z,55.90
2018-06-10T13:26:54.470Z,55.80
2018-06-10T13:29:22.757Z,56.00
2018-06-10T13:31:51.425Z,55.90
2018-06-10T13:34:19.623Z,55.00
2018-06-10T13:36:48.186Z,55.10
2018-06-10T13:39:16.492Z,54.80
2018-06-10T13:41:44.895Z,55.20
2018-06-10T13:44:13.118Z,55.80
2018-06-10T13:46:41.339Z,55.90
2018-06-10T13:49:09.600Z,55.40
2018-06-10T13:51:37.836Z,55.40
2018-06-10T13:54:06.124Z,55.80
2018-06-10T13:56:34.411Z,55.40
2018-06-10T13:59:02.902Z,55.80
2018-06-10T14:01:31.129Z,56.00
2018-06-10T14:03:59.787Z,56.30
2018-06-10T14:06:28.075Z,56.40
2018-06-10T14:08:56.305Z,57.00
2018-06-10T14:11:24.540Z,56.70
2018-06-10T14:13:52.777Z,56.90
2018-06-10T14:16:21.066Z,56.40
2018-06-10T14:18:49.313Z,56.00
2018-06-10T14:21:17.586Z,56.40
2018-06-10T14:23:45.941Z,55.90
2018-06-10T15:43:29.741Z,59.70
2018-06-10T15:45:58.000Z,60.00
2018-06-10T15:48:26.210Z,58.80
2018-06-10T15:50:54.469Z,57.20
2018-06-10T15:53:22.740Z,57.00
2018-06-10T15:55:50.954Z,56.40
2018-06-10T15:58:19.226Z,56.20
2018-06-10T16:00:47.497Z,55.90
2018-06-10T16:03:15.765Z,55.80
2018-06-10T16:05:43.991Z,55.40
2018-06-10T16:08:12.214Z,55.80
2018-06-10T16:10:40.469Z,55.10
2018-06-10T16:13:08.758Z,54.10
2018-06-10T16:15:37.099Z,53.80
2018-06-10T16:18:06.021Z,54.00
2018-06-10T16:20:34.221Z,54.10
2018-06-10T16:23:02.544Z,53.90
2018-06-10T16:25:30.842Z,53.70
2018-06-10T16:27:59.159Z,52.90
2018-06-10T16:30:27.401Z,52.30
2018-06-10T16:32:55.629Z,52.40
2018-06-10T16:35:23.898Z,52.30
2018-06-10T16:40:20.163Z,51.70
2018-06-10T16:42:48.429Z,51.20
2018-06-10T16:45:16.711Z,51.60
2018-06-10T16:47:44.938Z,51.50
2018-06-10T16:50:13.190Z,51.50
2018-06-10T16:52:41.492Z,52.10
2018-06-10T16:55:09.753Z,51.90
2018-06-10T16:57:38.046Z,51.70
2018-06-10T17:00:06.290Z,51.70
2018-06-10T17:02:34.576Z,51.40
2018-06-10T17:05:02.885Z,51.60
2018-06-10T17:07:31.181Z,51.70
2018-06-10T17:09:59.456Z,51.70
2018-06-10T17:12:27.718Z,51.20
2018-06-10T17:14:55.942Z,51.00
2018-06-10T17:17:24.186Z,50.90
2018-06-10T17:19:52.419Z,50.70
2018-06-10T17:22:20.629Z,50.50
2018-06-10T17:24:48.870Z,50.20
2018-06-10T17:27:17.175Z,50.50
2018-06-10T17:29:45.425Z,50.40
2018-06-10T17:32:13.669Z,50.60
2018-06-10T17:34:41.999Z,50.60
2018-06-10T17:37:10.486Z,50.30
2018-06-10T17:39:38.743Z,50.80
2018-06-10T17:42:06.966Z,52.10
2018-06-10T17:44:35.212Z,51.70
2018-06-10T17:47:03.564Z,51.60
2018-06-10T17:49:31.788Z,51.60
2018-06-10T17:52:00.040Z,51.80
2018-06-10T17:56:56.243Z,52.50
2018-06-10T17:59:24.513Z,52.70
2018-06-10T18:01:52.784Z,53.00
2018-06-10T18:04:21.045Z,53.30
2018-06-10T18:06:49.377Z,53.30
2018-06-10T18:09:17.702Z,53.40
2018-06-10T18:11:45.942Z,53.60
2018-06-10T18:14:14.202Z,53.70
2018-06-10T18:16:42.430Z,54.00
2018-06-10T18:19:10.625Z,54.10
2018-06-10T18:21:38.938Z,54.40
2018-06-10T18:24:07.175Z,55.00
2018-06-10T18:26:35.532Z,55.00
2018-06-10T18:29:03.761Z,54.90
2018-06-10T18:31:32.016Z,54.90
2018-06-10T18:34:00.287Z,55.50
2018-06-10T18:36:28.509Z,55.10
2018-06-10T18:38:56.735Z,55.10
2018-06-10T18:41:25.019Z,55.30
2018-06-10T18:43:53.287Z,55.50
2018-06-10T18:46:21.540Z,55.50
2018-06-10T18:48:49.794Z,55.60
2018-06-10T18:51:18.143Z,55.60
2018-06-10T18:53:46.445Z,56.20
2018-06-10T18:56:14.688Z,55.50
2018-06-10T18:58:42.978Z,55.40
2018-06-10T19:01:11.203Z,55.30
2018-06-10T19:03:39.409Z,55.30
2018-06-10T19:06:07.764Z,55.30
2018-06-10T19:08:35.994Z,55.40
2018-06-10T19:11:04.276Z,55.30
2018-06-10T19:13:32.521Z,55.40
2018-06-10T19:16:00.739Z,55.30
2018-06-10T19:18:28.946Z,55.20
2018-06-10T19:20:57.216Z,55.30
2018-06-10T19:23:25.433Z,55.40
2018-06-10T19:25:53.897Z,55.20
2018-06-10T19:28:22.178Z,55.40
2018-06-10T19:30:50.446Z,55.50
2018-06-10T19:33:18.817Z,55.70
2018-06-10T19:35:47.032Z,55.70
2018-06-10T19:38:15.252Z,55.80
2018-06-10T19:40:43.474Z,56.10
2018-06-10T19:43:11.800Z,56.30
2018-06-10T19:45:40.100Z,56.40
2018-06-10T19:48:08.398Z,56.30
2018-06-10T19:50:37.810Z,56.50
2018-06-10T19:53:06.372Z,56.70
2018-06-10T19:55:34.613Z,56.90
2018-06-10T19:58:02.844Z,57.20
2018-06-10T20:00:31.103Z,57.40
2018-06-10T20:02:59.380Z,57.70
2018-06-10T20:05:27.647Z,57.60
2018-06-10T20:07:55.885Z,57.80
2018-06-10T20:10:24.266Z,57.90
2018-06-10T20:12:52.636Z,58.00
2018-06-10T20:15:20.854Z,58.10
2018-06-10T20:17:49.079Z,58.20
2018-06-10T20:20:17.302Z,58.40
2018-06-10T20:22:45.576Z,58.60
2018-06-10T20:25:13.870Z,58.60
2018-06-10T20:27:42.181Z,58.70
2018-06-10T20:30:10.527Z,58.90
2018-06-10T20:32:38.757Z,58.80
2018-06-10T20:35:07.027Z,59.00
2018-06-10T20:37:36.178Z,59.20
2018-06-10T20:40:04.658Z,59.30
2018-06-10T20:42:40.124Z,60.10
2018-06-10T20:45:08.370Z,59.70
2018-06-10T20:47:36.907Z,59.90
2018-06-10T20:50:05.418Z,59.80
2018-06-10T20:52:33.689Z,60.00
2018-06-10T20:55:01.939Z,60.00
2018-06-10T20:57:31.394Z,60.10
2018-06-10T20:59:59.993Z,60.10
2018-06-10T21:02:29.429Z,60.20
2018-06-10T21:04:57.719Z,60.20
2018-06-10T21:07:33.306Z,60.20
2018-06-10T21:10:01.534Z,60.30
2018-06-10T21:12:32.089Z,60.50
2018-06-10T21:15:01.140Z,60.70
2018-06-10T21:17:30.292Z,60.70
2018-06-10T21:20:00.988Z,60.90
2018-06-10T21:22:31.389Z,61.00
2018-06-10T21:24:59.685Z,61.20
2018-06-10T21:27:27.892Z,61.40
2018-06-10T21:29:56.186Z,61.30
2018-06-10T21:32:24.437Z,61.30
2018-06-10T21:34:52.681Z,61.30
2018-06-10T21:37:20.949Z,61.30
2018-06-10T21:39:49.370Z,61.40
2018-06-10T21:42:17.589Z,61.50
2018-06-10T21:44:46.805Z,61.60
2018-06-10T21:47:15.026Z,61.70
2018-06-10T21:49:43.248Z,61.70
2018-06-10T21:52:11.488Z,61.80
2018-06-10T21:54:39.789Z,62.00
2018-06-10T21:57:08.000Z,62.20
2018-06-10T21:59:36.331Z,62.50
2018-06-10T22:02:04.540Z,62.60
2018-06-10T22:04:32.795Z,62.70
2018-06-10T22:07:01.006Z,62.80
2018-06-10T22:09:29.214Z,62.90
2018-06-10T22:11:57.529Z,63.20
2018-06-10T22:14:25.752Z,63.20
2018-06-10T22:16:53.992Z,63.30
2018-06-10T22:19:22.256Z,63.40
2018-06-10T22:21:50.509Z,63.50
2018-06-10T22:24:18.943Z,63.80
2018-06-10T22:26:47.202Z,64.70
2018-06-10T22:29:15.478Z,64.20
2018-06-10T22:31:43.742Z,64.30
2018-06-10T22:34:12.040Z,65.30
2018-06-10T22:36:40.265Z,64.80
2018-06-10T22:39:08.551Z,64.90
2018-06-10T22:41:36.838Z,65.00
2018-06-10T22:44:05.125Z,65.10
2018-06-10T22:46:33.363Z,65.10
2018-06-10T22:49:01.596Z,65.10
2018-06-10T22:51:29.832Z,65.10
2018-06-10T22:54:09.459Z,65.10
2018-06-10T22:56:37.994Z,65.40
2018-06-10T22:59:06.252Z,65.60
2018-06-10T23:01:34.501Z,65.80
2018-06-10T23:04:02.710Z,65.70
2018-06-10T23:06:30.886Z,65.70
2018-06-10T23:08:59.107Z,66.00
2018-06-10T23:11:27.333Z,66.10
2018-06-10T23:13:55.528Z,66.10
2018-06-10T23:16:23.736Z,66.10
2018-06-10T23:18:52.355Z,66.10
2018-06-10T23:21:20.529Z,66.10
2018-06-10T23:23:48.726Z,66.10
2018-06-10T23:26:16.940Z,66.30
2018-06-10T23:28:45.205Z,66.60
2018-06-10T23:31:13.429Z,66.80
2018-06-10T23:33:41.731Z,67.40
2018-06-10T23:36:09.953Z,66.70
2018-06-10T23:38:38.165Z,66.90
2018-06-10T23:41:06.414Z,67.10
2018-06-10T23:43:34.605Z,67.40
2018-06-10T23:46:02.880Z,68.00
2018-06-10T23:48:31.101Z,67.40
2018-06-10T23:51:00.317Z,67.30
2018-06-10T23:53:28.537Z,67.40
2018-06-10T23:55:56.801Z,67.50
2018-06-10T23:58:24.988Z,67.50
